»·PEaware :: N904CP L70-KSBP

N904CP :: L70-KSBP

FLIGHT INFORMATION

Flight Status: Arrived
Operator: Privately registered:
United States
More flights under this callsign
Pilot: Juan D. (11620)
Aircraft: Unknown
(P28B)
More flights by this aircraft type
Origin: L70 Agua Dulce
United States
Destination: KSBP San Luis Co Regl
United States
More flights between these airports :: More routes between these airports
Route: JEFFY GMN TAFTO AVE PRB MQO
File this flight plan on PilotEdge
Remarks:
Altitude:
(Current/Filed)
10,500ft
Speed:
(Current/Filed)
130kts
Departed: 19-Nov-17 11:24 AM
Arrived: 19-Nov-17 12:48 PM
Distance/Time
Traveled:
122nm/1:23
Distance/Time
To Go:
Arrived

Flight Plot

Page will automatically refresh every two minutes.

Flight plan parsing failed; only flown route is shown


Map Options




Map Legend


Flown Route
Filed Route
Departure Airport
Arrival Airport
Navaid (VOR, NDB)
Fix

Horizontal Profiles

Position Reports

Time Latitude Longitude Heading Altitude Ground
Speed
19-Nov-17 11:22 34.506282 -118.307443 318 2663ft 0kts
19-Nov-17 11:23 34.506282 -118.307443 318 2663ft 0kts
19-Nov-17 11:24 34.506282 -118.307443 318 2663ft 0kts
19-Nov-17 11:25 34.506282 -118.307443 318 2663ft 0kts
19-Nov-17 11:26 34.506282 -118.307443 318 2663ft 0kts
19-Nov-17 11:27 34.506522 -118.307473 49 2663ft 12kts
19-Nov-17 11:28 34.507092 -118.306767 357 2663ft 7kts
19-Nov-17 11:29 34.498042 -118.323298 263 3243ft 95kts
19-Nov-17 11:30 34.510744 -118.339160 327 4350ft 87kts
19-Nov-17 11:31 34.533629 -118.355674 327 5764ft 84kts
19-Nov-17 11:32 34.553464 -118.369952 326 6888ft 83kts
19-Nov-17 11:33 34.568680 -118.384102 312 7752ft 84kts
19-Nov-17 11:34 34.585048 -118.404198 313 8742ft 84kts
19-Nov-17 11:35 34.604490 -118.427683 313 9813ft 85kts
19-Nov-17 11:36 34.618585 -118.444613 313 10534ft 86kts
19-Nov-17 11:37 34.640444 -118.470567 314 10551ft 127kts
19-Nov-17 11:38 34.666292 -118.501324 314 10556ft 131kts
19-Nov-17 11:39 34.692151 -118.532324 314 10568ft 131kts
19-Nov-17 11:40 34.718067 -118.563476 314 10585ft 130kts
19-Nov-17 11:41 34.743813 -118.594478 314 10581ft 131kts
19-Nov-17 11:42 34.755873 -118.635972 286 10573ft 132kts
19-Nov-17 11:43 34.764986 -118.677685 286 10568ft 132kts
19-Nov-17 11:44 34.774338 -118.721085 286 10562ft 133kts
19-Nov-17 11:45 34.783678 -118.764615 286 10558ft 132kts
19-Nov-17 11:46 34.792940 -118.807880 286 10553ft 133kts
19-Nov-17 11:47 34.802261 -118.851505 286 10542ft 133kts
19-Nov-17 11:48 34.823979 -118.886437 312 10536ft 131kts
19-Nov-17 11:49 34.848762 -118.918940 312 10534ft 131kts
19-Nov-17 11:50 34.873618 -118.951426 312 10534ft 131kts
19-Nov-17 11:51 34.898417 -118.983832 312 10533ft 131kts
19-Nov-17 11:52 34.923169 -119.016203 312 10529ft 131kts
19-Nov-17 11:53 34.947945 -119.048638 311 10526ft 131kts
19-Nov-17 11:54 34.972755 -119.081151 311 10526ft 130kts
19-Nov-17 11:55 34.997460 -119.113551 311 10526ft 130kts
19-Nov-17 11:56 35.022182 -119.146004 311 10526ft 130kts
19-Nov-17 11:57 35.046839 -119.178404 311 10525ft 130kts
19-Nov-17 11:58 35.071507 -119.210851 311 10525ft 130kts
19-Nov-17 11:59 35.096121 -119.243255 311 10525ft 130kts
19-Nov-17 12:00 35.119905 -119.274594 311 10526ft 130kts
19-Nov-17 12:01 35.144546 -119.307091 311 10526ft 130kts
19-Nov-17 12:02 35.169223 -119.339674 311 10526ft 130kts
19-Nov-17 12:03 35.193925 -119.372329 311 10526ft 130kts
19-Nov-17 12:04 35.218534 -119.404897 311 10526ft 130kts
19-Nov-17 12:05 35.243161 -119.437513 311 10526ft 130kts
19-Nov-17 12:06 35.267733 -119.470089 311 10526ft 130kts
19-Nov-17 12:07 35.292398 -119.502820 311 10526ft 130kts
19-Nov-17 12:08 35.316960 -119.535446 311 10525ft 130kts
19-Nov-17 12:09 35.341741 -119.568398 311 10470ft 131kts
19-Nov-17 12:10 35.366403 -119.601214 311 10470ft 130kts
19-Nov-17 12:11 35.390989 -119.633968 311 10461ft 130kts
19-Nov-17 12:12 35.415409 -119.666537 310 10463ft 130kts
19-Nov-17 12:13 35.440023 -119.699389 310 10463ft 130kts
19-Nov-17 12:14 35.464506 -119.732100 310 10463ft 130kts
19-Nov-17 12:15 35.489109 -119.765003 310 10463ft 130kts
19-Nov-17 12:16 35.513699 -119.797915 310 10437ft 131kts
19-Nov-17 12:17 35.538079 -119.830582 310 10438ft 130kts
19-Nov-17 12:18 35.562470 -119.863298 310 10439ft 130kts
19-Nov-17 12:19 35.586965 -119.896185 310 10440ft 130kts
19-Nov-17 12:20 35.611457 -119.929101 310 10441ft 130kts
19-Nov-17 12:21 35.636031 -119.962158 310 10442ft 130kts
19-Nov-17 12:22 35.648232 -120.001942 274 10444ft 129kts
19-Nov-17 12:23 35.650544 -120.046181 273 10444ft 130kts
19-Nov-17 12:24 35.652500 -120.090580 273 10444ft 130kts
19-Nov-17 12:25 35.654357 -120.134959 273 10444ft 130kts
19-Nov-17 12:26 35.656176 -120.179290 273 10444ft 129kts
19-Nov-17 12:27 35.657969 -120.223504 273 10443ft 129kts
19-Nov-17 12:28 35.659746 -120.267750 273 10443ft 129kts
19-Nov-17 12:29 35.661509 -120.312078 273 10443ft 129kts
19-Nov-17 12:30 35.663026 -120.354362 273 10226ft 121kts
19-Nov-17 12:31 35.664408 -120.395783 273 9744ft 121kts
19-Nov-17 12:32 35.665889 -120.437048 273 9295ft 121kts
19-Nov-17 12:33 35.667449 -120.478174 273 8868ft 120kts
19-Nov-17 12:34 35.669002 -120.519187 273 8463ft 120kts
19-Nov-17 12:35 35.670534 -120.560023 273 8082ft 119kts
19-Nov-17 12:36 35.672053 -120.600854 273 7721ft 119kts
19-Nov-17 12:37 35.656380 -120.631803 202 7373ft 122kts
19-Nov-17 12:38 35.621343 -120.643904 198 6819ft 131kts
19-Nov-17 12:39 35.586586 -120.654947 197 6403ft 130kts
19-Nov-17 12:40 35.551551 -120.666033 197 6014ft 129kts
19-Nov-17 12:41 35.516774 -120.677025 197 5647ft 129kts
19-Nov-17 12:42 35.481935 -120.687952 194 5284ft 130kts
19-Nov-17 12:43 35.451801 -120.670411 128 4857ft 136kts
19-Nov-17 12:44 35.428809 -120.635251 128 4580ft 131kts
19-Nov-17 12:45 35.407276 -120.601676 137 3681ft 121kts
19-Nov-17 12:46 35.374923 -120.593237 195 3225ft 124kts
19-Nov-17 12:47 35.340753 -120.606631 198 3410ft 142kts
19-Nov-17 12:48 35.303853 -120.619749 194 3011ft 142kts
19-Nov-17 12:49 35.264227 -120.632002 169 2217ft 138kts
19-Nov-17 12:50 35.240629 -120.607630 140 1561ft 84kts
19-Nov-17 12:51 35.223985 -120.607170 230 1156ft 80kts
19-Nov-17 12:52 35.231529 -120.630860 306 308ft 67kts
19-Nov-17 12:53 35.235313 -120.636142 79 214ft 0kts
19-Nov-17 12:54 35.235357 -120.635638 109 214ft 9kts
19-Nov-17 12:55 35.234560 -120.632819 321 214ft 0kts
19-Nov-17 12:56 35.234560 -120.632819 321 214ft 0kts
19-Nov-17 12:57 35.234560 -120.632819 321 214ft 0kts
19-Nov-17 12:58 35.234560 -120.632819 321 214ft 0kts
19-Nov-17 12:59 35.234560 -120.632819 321 214ft 0kts
19-Nov-17 13:00 35.234560 -120.632819 321 214ft 0kts
19-Nov-17 13:01 35.234560 -120.632819 321 214ft 0kts
19-Nov-17 13:02 35.234560 -120.632819 321 214ft 0kts
19-Nov-17 13:03 35.234560 -120.632819 321 214ft 0kts
19-Nov-17 13:04 35.234560 -120.632819 321 214ft 0kts
19-Nov-17 13:05 35.234560 -120.632819 321 214ft 0kts
19-Nov-17 13:06 35.234560 -120.632819 321 214ft 0kts
19-Nov-17 13:07 35.234560 -120.632819 321 214ft 0kts

Navigation Log

Ident Type
Flight plan parsing failed, navigation log unavailable